sensor_id;sensor_type;location;lat;lon;timestamp;temperature;humidity
55004;DHT22;40900;52.710;6.438;2022-12-11T00:00:23;-0.20;99.90
55004;DHT22;40900;52.710;6.438;2022-12-11T00:02:49;-0.30;99.90
55004;DHT22;40900;52.710;6.438;2022-12-11T00:05:15;-0.20;99.90
55004;DHT22;40900;52.710;6.438;2022-12-11T00:07:40;-0.20;99.90
55004;DHT22;40900;52.710;6.438;2022-12-11T00:10:06;-0.20;99.90
55004;DHT22;40900;52.710;6.438;2022-12-11T00:12:32;-0.20;99.90
55004;DHT22;40900;52.710;6.438;2022-12-11T00:14:58;-0.20;99.90
55004;DHT22;40900;52.710;6.438;2022-12-11T00:17:23;-0.20;99.90
55004;DHT22;40900;52.710;6.438;2022-12-11T00:19:49;-0.20;99.90
55004;DHT22;40900;52.710;6.438;2022-12-11T00:22:15;-0.10;99.90
55004;DHT22;40900;52.710;6.438;2022-12-11T00:24:40;-0.20;99.90
55004;DHT22;40900;52.710;6.438;2022-12-11T00:27:06;-0.10;99.90
55004;DHT22;40900;52.710;6.438;2022-12-11T00:29:32;-0.20;99.90
55004;DHT22;40900;52.710;6.438;2022-12-11T00:31:58;-0.20;99.90
55004;DHT22;40900;52.710;6.438;2022-12-11T00:34:24;-0.20;99.90
55004;DHT22;40900;52.710;6.438;2022-12-11T00:36:49;-0.20;99.90
55004;DHT22;40900;52.710;6.438;2022-12-11T00:39:15;-0.20;99.90
55004;DHT22;40900;52.710;6.438;2022-12-11T00:41:41;-0.20;99.90
55004;DHT22;40900;52.710;6.438;2022-12-11T00:44:06;-0.20;99.90
55004;DHT22;40900;52.710;6.438;2022-12-11T00:46:32;-0.10;99.90
55004;DHT22;40900;52.710;6.438;2022-12-11T00:48:58;-0.20;99.90
55004;DHT22;40900;52.710;6.438;2022-12-11T00:51:24;-0.20;99.90
55004;DHT22;40900;52.710;6.438;2022-12-11T00:53:50;-0.10;99.90
55004;DHT22;40900;52.710;6.438;2022-12-11T00:56:20;-0.20;99.90
55004;DHT22;40900;52.710;6.438;2022-12-11T00:58:47;-0.10;99.90
55004;DHT22;40900;52.710;6.438;2022-12-11T01:01:16;-0.20;99.90
55004;DHT22;40900;52.710;6.438;2022-12-11T01:03:42;-0.10;99.90
55004;DHT22;40900;52.710;6.438;2022-12-11T01:06:13;-0.20;99.90
55004;DHT22;40900;52.710;6.438;2022-12-11T01:08:39;-0.20;99.90
55004;DHT22;40900;52.710;6.438;2022-12-11T01:11:08;-0.10;99.90
55004;DHT22;40900;52.710;6.438;2022-12-11T01:13:35;-0.20;99.90
55004;DHT22;40900;52.710;6.438;2022-12-11T01:16:09;-0.10;99.90
55004;DHT22;40900;52.710;6.438;2022-12-11T01:18:35;-0.10;99.90
55004;DHT22;40900;52.710;6.438;2022-12-11T01:21:11;-0.10;99.90
55004;DHT22;40900;52.710;6.438;2022-12-11T01:23:39;-0.10;99.90
55004;DHT22;40900;52.710;6.438;2022-12-11T01:26:10;-0.10;99.90
55004;DHT22;40900;52.710;6.438;2022-12-11T01:28:36;0.00;99.90
55004;DHT22;40900;52.710;6.438;2022-12-11T01:31:02;0.10;99.90
55004;DHT22;40900;52.710;6.438;2022-12-11T01:33:28;-0.10;99.90
55004;DHT22;40900;52.710;6.438;2022-12-11T01:35:54;-0.10;99.90
55004;DHT22;40900;52.710;6.438;2022-12-11T01:38:19;0.00;99.90
55004;DHT22;40900;52.710;6.438;2022-12-11T01:40:49;0.00;99.90
55004;DHT22;40900;52.710;6.438;2022-12-11T01:43:15;0.00;99.90
55004;DHT22;40900;52.710;6.438;2022-12-11T01:45:43;0.00;99.90
55004;DHT22;40900;52.710;6.438;2022-12-11T01:48:13;0.00;99.90
55004;DHT22;40900;52.710;6.438;2022-12-11T01:50:48;0.00;99.90
55004;DHT22;40900;52.710;6.438;2022-12-11T01:53:19;0.00;99.90
55004;DHT22;40900;52.710;6.438;2022-12-11T01:55:47;0.00;99.90
55004;DHT22;40900;52.710;6.438;2022-12-11T01:58:15;0.00;99.90
55004;DHT22;40900;52.710;6.438;2022-12-11T02:00:42;0.00;99.90
55004;DHT22;40900;52.710;6.438;2022-12-11T02:03:08;0.10;99.90
55004;DHT22;40900;52.710;6.438;2022-12-11T02:05:33;0.10;99.90
55004;DHT22;40900;52.710;6.438;2022-12-11T02:08:00;0.00;99.90
55004;DHT22;40900;52.710;6.438;2022-12-11T02:13:42;0.10;99.90
55004;DHT22;40900;52.710;6.438;2022-12-11T02:16:24;0.10;99.90
55004;DHT22;40900;52.710;6.438;2022-12-11T02:21:25;0.10;99.90
55004;DHT22;40900;52.710;6.438;2022-12-11T02:24:03;0.10;99.90
55004;DHT22;40900;52.710;6.438;2022-12-11T02:29:32;0.10;99.90
55004;DHT22;40900;52.710;6.438;2022-12-11T02:32:08;0.10;99.90
55004;DHT22;40900;52.710;6.438;2022-12-11T02:34:45;0.30;99.90
55004;DHT22;40900;52.710;6.438;2022-12-11T02:37:17;0.10;99.90
55004;DHT22;40900;52.710;6.438;2022-12-11T02:39:45;0.20;99.90
55004;DHT22;40900;52.710;6.438;2022-12-11T02:42:13;0.10;99.90
55004;DHT22;40900;52.710;6.438;2022-12-11T02:44:41;0.10;99.90
55004;DHT22;40900;52.710;6.438;2022-12-11T02:47:11;0.10;99.90
55004;DHT22;40900;52.710;6.438;2022-12-11T02:49:40;0.10;99.90
55004;DHT22;40900;52.710;6.438;2022-12-11T02:52:10;0.20;99.90
55004;DHT22;40900;52.710;6.438;2022-12-11T02:54:38;0.10;99.90
55004;DHT22;40900;52.710;6.438;2022-12-11T02:58:02;0.30;99.90
55004;DHT22;40900;52.710;6.438;2022-12-11T03:00:02;0.10;99.90
55004;DHT22;40900;52.710;6.438;2022-12-11T03:02:28;0.10;99.90
55004;DHT22;40900;52.710;6.438;2022-12-11T03:04:54;0.20;99.90
55004;DHT22;40900;52.710;6.438;2022-12-11T03:07:25;0.10;99.90
55004;DHT22;40900;52.710;6.438;2022-12-11T03:09:51;0.20;99.90
55004;DHT22;40900;52.710;6.438;2022-12-11T03:12:29;0.20;99.90
55004;DHT22;40900;52.710;6.438;2022-12-11T03:14:58;0.20;99.90
55004;DHT22;40900;52.710;6.438;2022-12-11T03:25:52;0.20;99.90
55004;DHT22;40900;52.710;6.438;2022-12-11T03:28:41;0.20;99.90
55004;DHT22;40900;52.710;6.438;2022-12-11T03:31:12;0.20;99.90
55004;DHT22;40900;52.710;6.438;2022-12-11T03:33:43;0.20;99.90
55004;DHT22;40900;52.710;6.438;2022-12-11T03:36:16;0.30;99.90
55004;DHT22;40900;52.710;6.438;2022-12-11T03:38:47;0.20;99.90
55004;DHT22;40900;52.710;6.438;2022-12-11T03:41:17;0.20;99.90
55004;DHT22;40900;52.710;6.438;2022-12-11T03:43:44;0.20;99.90
55004;DHT22;40900;52.710;6.438;2022-12-11T03:46:12;0.30;99.90
55004;DHT22;40900;52.710;6.438;2022-12-11T03:48:40;0.30;99.90
55004;DHT22;40900;52.710;6.438;2022-12-11T03:51:08;0.40;99.90
55004;DHT22;40900;52.710;6.438;2022-12-11T03:53:35;0.30;99.90
55004;DHT22;40900;52.710;6.438;2022-12-11T03:56:06;0.30;99.90
55004;DHT22;40900;52.710;6.438;2022-12-11T03:58:33;0.30;99.90
55004;DHT22;40900;52.710;6.438;2022-12-11T04:00:58;0.30;99.90
55004;DHT22;40900;52.710;6.438;2022-12-11T04:03:24;0.30;99.90
55004;DHT22;40900;52.710;6.438;2022-12-11T04:05:52;0.30;99.90
55004;DHT22;40900;52.710;6.438;2022-12-11T04:08:19;0.40;99.90
55004;DHT22;40900;52.710;6.438;2022-12-11T04:10:45;0.40;99.90
55004;DHT22;40900;52.710;6.438;2022-12-11T04:13:11;0.30;99.90
55004;DHT22;40900;52.710;6.438;2022-12-11T04:15:37;0.40;99.90
55004;DHT22;40900;52.710;6.438;2022-12-11T04:18:04;0.40;99.90
55004;DHT22;40900;52.710;6.438;2022-12-11T04:20:48;0.40;99.90
55004;DHT22;40900;52.710;6.438;2022-12-11T04:23:35;0.40;99.90
55004;DHT22;40900;52.710;6.438;2022-12-11T04:26:20;0.40;99.90
55004;DHT22;40900;52.710;6.438;2022-12-11T04:28:46;0.30;99.90
55004;DHT22;40900;52.710;6.438;2022-12-11T04:31:14;0.30;99.90
55004;DHT22;40900;52.710;6.438;2022-12-11T04:33:41;0.30;99.90
55004;DHT22;40900;52.710;6.438;2022-12-11T04:36:07;0.30;99.90
55004;DHT22;40900;52.710;6.438;2022-12-11T04:38:33;0.30;99.90
55004;DHT22;40900;52.710;6.438;2022-12-11T04:41:04;0.30;99.90
55004;DHT22;40900;52.710;6.438;2022-12-11T04:43:30;0.30;99.90
55004;DHT22;40900;52.710;6.438;2022-12-11T04:46:09;0.30;99.90
55004;DHT22;40900;52.710;6.438;2022-12-11T04:48:36;0.40;99.90
55004;DHT22;40900;52.710;6.438;2022-12-11T04:51:02;0.40;99.90
55004;DHT22;40900;52.710;6.438;2022-12-11T04:53:28;0.40;99.90
55004;DHT22;40900;52.710;6.438;2022-12-11T04:55:54;0.40;99.90
55004;DHT22;40900;52.710;6.438;2022-12-11T04:58:19;0.30;99.90
55004;DHT22;40900;52.710;6.438;2022-12-11T05:00:46;0.70;99.90
55004;DHT22;40900;52.710;6.438;2022-12-11T05:03:12;0.40;99.90
55004;DHT22;40900;52.710;6.438;2022-12-11T05:05:37;0.40;99.90
55004;DHT22;40900;52.710;6.438;2022-12-11T05:08:03;0.40;99.90
55004;DHT22;40900;52.710;6.438;2022-12-11T05:10:30;0.40;99.90
55004;DHT22;40900;52.710;6.438;2022-12-11T05:12:55;0.50;99.90
55004;DHT22;40900;52.710;6.438;2022-12-11T05:15:22;0.40;99.90
55004;DHT22;40900;52.710;6.438;2022-12-11T05:17:48;0.40;99.90
55004;DHT22;40900;52.710;6.438;2022-12-11T05:20:14;0.60;99.90
55004;DHT22;40900;52.710;6.438;2022-12-11T05:22:39;0.50;99.90
55004;DHT22;40900;52.710;6.438;2022-12-11T05:25:06;0.50;99.90
55004;DHT22;40900;52.710;6.438;2022-12-11T05:27:32;0.40;99.90
55004;DHT22;40900;52.710;6.438;2022-12-11T05:29:58;0.50;99.90
55004;DHT22;40900;52.710;6.438;2022-12-11T05:32:24;1.10;99.90
55004;DHT22;40900;52.710;6.438;2022-12-11T05:34:50;0.50;99.90
55004;DHT22;40900;52.710;6.438;2022-12-11T05:37:16;0.50;99.90
55004;DHT22;40900;52.710;6.438;2022-12-11T05:39:41;0.50;99.90
55004;DHT22;40900;52.710;6.438;2022-12-11T05:42:07;0.40;99.90
55004;DHT22;40900;52.710;6.438;2022-12-11T05:44:33;0.40;99.90
55004;DHT22;40900;52.710;6.438;2022-12-11T05:46:59;0.40;99.90
55004;DHT22;40900;52.710;6.438;2022-12-11T05:49:24;0.40;99.90
55004;DHT22;40900;52.710;6.438;2022-12-11T05:51:50;0.40;99.90
55004;DHT22;40900;52.710;6.438;2022-12-11T05:54:16;0.40;99.90
55004;DHT22;40900;52.710;6.438;2022-12-11T05:56:42;0.40;99.90
55004;DHT22;40900;52.710;6.438;2022-12-11T05:59:07;0.40;99.90
55004;DHT22;40900;52.710;6.438;2022-12-11T06:01:39;0.50;99.90
55004;DHT22;40900;52.710;6.438;2022-12-11T06:04:06;0.40;99.90
55004;DHT22;40900;52.710;6.438;2022-12-11T06:06:32;0.40;99.90
55004;DHT22;40900;52.710;6.438;2022-12-11T06:08:59;0.40;99.90
55004;DHT22;40900;52.710;6.438;2022-12-11T06:11:27;0.40;99.90
55004;DHT22;40900;52.710;6.438;2022-12-11T06:13:53;0.40;99.90
55004;DHT22;40900;52.710;6.438;2022-12-11T06:16:20;0.40;99.90
55004;DHT22;40900;52.710;6.438;2022-12-11T06:18:46;0.40;99.90
55004;DHT22;40900;52.710;6.438;2022-12-11T06:21:19;0.40;99.90
55004;DHT22;40900;52.710;6.438;2022-12-11T06:23:46;0.40;99.90
55004;DHT22;40900;52.710;6.438;2022-12-11T06:26:12;0.40;99.90
55004;DHT22;40900;52.710;6.438;2022-12-11T06:28:38;0.40;99.90
55004;DHT22;40900;52.710;6.438;2022-12-11T06:31:04;0.40;99.90
55004;DHT22;40900;52.710;6.438;2022-12-11T06:33:30;0.40;99.90
55004;DHT22;40900;52.710;6.438;2022-12-11T06:36:00;0.40;99.90
55004;DHT22;40900;52.710;6.438;2022-12-11T06:38:26;0.40;99.90
55004;DHT22;40900;52.710;6.438;2022-12-11T06:40:59;0.40;99.90
55004;DHT22;40900;52.710;6.438;2022-12-11T06:43:25;0.40;99.90
55004;DHT22;40900;52.710;6.438;2022-12-11T06:45:51;0.40;99.90
55004;DHT22;40900;52.710;6.438;2022-12-11T06:48:17;0.40;99.90
55004;DHT22;40900;52.710;6.438;2022-12-11T06:50:43;0.30;99.90
55004;DHT22;40900;52.710;6.438;2022-12-11T06:53:10;0.40;99.90
55004;DHT22;40900;52.710;6.438;2022-12-11T06:55:37;0.40;99.90
55004;DHT22;40900;52.710;6.438;2022-12-11T06:58:04;0.40;99.90
55004;DHT22;40900;52.710;6.438;2022-12-11T07:00:30;0.40;99.90
55004;DHT22;40900;52.710;6.438;2022-12-11T07:02:55;0.40;99.90
55004;DHT22;40900;52.710;6.438;2022-12-11T07:05:22;0.30;99.90
55004;DHT22;40900;52.710;6.438;2022-12-11T07:07:48;0.40;99.90
55004;DHT22;40900;52.710;6.438;2022-12-11T07:10:14;0.40;99.90
55004;DHT22;40900;52.710;6.438;2022-12-11T07:12:40;0.40;99.90
55004;DHT22;40900;52.710;6.438;2022-12-11T07:15:06;0.40;99.90
55004;DHT22;40900;52.710;6.438;2022-12-11T07:17:32;0.40;99.90
55004;DHT22;40900;52.710;6.438;2022-12-11T07:19:57;0.40;99.90
55004;DHT22;40900;52.710;6.438;2022-12-11T07:22:23;0.40;99.90
55004;DHT22;40900;52.710;6.438;2022-12-11T07:24:49;0.40;99.90
55004;DHT22;40900;52.710;6.438;2022-12-11T07:27:14;0.40;99.90
55004;DHT22;40900;52.710;6.438;2022-12-11T07:29:40;0.40;99.90
55004;DHT22;40900;52.710;6.438;2022-12-11T07:32:06;0.40;99.90
55004;DHT22;40900;52.710;6.438;2022-12-11T07:34:31;0.40;99.90
55004;DHT22;40900;52.710;6.438;2022-12-11T07:36:57;0.90;99.90
55004;DHT22;40900;52.710;6.438;2022-12-11T07:39:23;0.40;99.90
55004;DHT22;40900;52.710;6.438;2022-12-11T07:41:49;0.40;99.90
55004;DHT22;40900;52.710;6.438;2022-12-11T07:44:14;0.40;99.90
55004;DHT22;40900;52.710;6.438;2022-12-11T07:46:40;0.40;99.90
55004;DHT22;40900;52.710;6.438;2022-12-11T07:49:06;0.50;99.90
55004;DHT22;40900;52.710;6.438;2022-12-11T07:51:34;0.50;99.90
55004;DHT22;40900;52.710;6.438;2022-12-11T07:54:03;0.50;99.90
55004;DHT22;40900;52.710;6.438;2022-12-11T07:56:30;0.50;99.90
55004;DHT22;40900;52.710;6.438;2022-12-11T07:58:58;0.50;99.90
55004;DHT22;40900;52.710;6.438;2022-12-11T08:01:26;0.50;99.90
55004;DHT22;40900;52.710;6.438;2022-12-11T08:03:53;0.60;99.90
55004;DHT22;40900;52.710;6.438;2022-12-11T08:06:23;0.50;99.90
55004;DHT22;40900;52.710;6.438;2022-12-11T08:08:49;0.50;99.90
55004;DHT22;40900;52.710;6.438;2022-12-11T08:11:15;0.60;99.90
55004;DHT22;40900;52.710;6.438;2022-12-11T08:13:41;0.60;99.90
55004;DHT22;40900;52.710;6.438;2022-12-11T08:16:09;0.60;99.90
55004;DHT22;40900;52.710;6.438;2022-12-11T08:18:36;0.70;99.90
55004;DHT22;40900;52.710;6.438;2022-12-11T08:23:31;0.60;99.90
55004;DHT22;40900;52.710;6.438;2022-12-11T08:25:57;0.50;99.90
55004;DHT22;40900;52.710;6.438;2022-12-11T08:28:22;0.60;99.90
55004;DHT22;40900;52.710;6.438;2022-12-11T08:30:48;0.60;99.90
55004;DHT22;40900;52.710;6.438;2022-12-11T08:33:14;0.50;99.90
55004;DHT22;40900;52.710;6.438;2022-12-11T08:35:40;0.60;99.90
55004;DHT22;40900;52.710;6.438;2022-12-11T08:38:06;0.60;99.90
55004;DHT22;40900;52.710;6.438;2022-12-11T08:40:32;0.50;99.90
55004;DHT22;40900;52.710;6.438;2022-12-11T08:42:57;0.60;99.90
55004;DHT22;40900;52.710;6.438;2022-12-11T08:45:23;0.60;99.90
55004;DHT22;40900;52.710;6.438;2022-12-11T08:47:49;0.60;99.90
55004;DHT22;40900;52.710;6.438;2022-12-11T08:50:14;0.60;99.90
55004;DHT22;40900;52.710;6.438;2022-12-11T08:52:40;0.60;99.90
55004;DHT22;40900;52.710;6.438;2022-12-11T08:55:06;0.60;99.90
55004;DHT22;40900;52.710;6.438;2022-12-11T08:57:32;0.60;99.90
55004;DHT22;40900;52.710;6.438;2022-12-11T08:59:57;0.70;99.90
55004;DHT22;40900;52.710;6.438;2022-12-11T09:02:23;0.60;99.90
55004;DHT22;40900;52.710;6.438;2022-12-11T09:04:49;0.70;99.90
55004;DHT22;40900;52.710;6.438;2022-12-11T09:07:15;0.70;99.90
55004;DHT22;40900;52.710;6.438;2022-12-11T09:09:40;0.70;99.90
55004;DHT22;40900;52.710;6.438;2022-12-11T09:12:06;0.80;99.90
55004;DHT22;40900;52.710;6.438;2022-12-11T09:14:32;0.70;99.90
55004;DHT22;40900;52.710;6.438;2022-12-11T09:16:57;0.80;99.90
55004;DHT22;40900;52.710;6.438;2022-12-11T09:19:23;0.80;99.90
55004;DHT22;40900;52.710;6.438;2022-12-11T09:21:49;0.70;99.90
55004;DHT22;40900;52.710;6.438;2022-12-11T09:24:15;0.70;99.90
55004;DHT22;40900;52.710;6.438;2022-12-11T09:26:41;0.70;99.90
55004;DHT22;40900;52.710;6.438;2022-12-11T09:29:07;0.70;99.90
55004;DHT22;40900;52.710;6.438;2022-12-11T09:31:34;0.70;99.90
55004;DHT22;40900;52.710;6.438;2022-12-11T09:34:07;0.80;99.90
55004;DHT22;40900;52.710;6.438;2022-12-11T09:36:33;0.70;99.90
55004;DHT22;40900;52.710;6.438;2022-12-11T09:39:00;0.80;99.90
55004;DHT22;40900;52.710;6.438;2022-12-11T09:46:35;0.70;99.90
55004;DHT22;40900;52.710;6.438;2022-12-11T09:49:03;0.90;99.90
55004;DHT22;40900;52.710;6.438;2022-12-11T09:52:17;0.80;99.90
55004;DHT22;40900;52.710;6.438;2022-12-11T09:54:22;0.80;99.90
55004;DHT22;40900;52.710;6.438;2022-12-11T10:00:11;0.80;99.90
55004;DHT22;40900;52.710;6.438;2022-12-11T10:08:28;0.80;99.90
55004;DHT22;40900;52.710;6.438;2022-12-11T10:11:41;1.00;99.90
55004;DHT22;40900;52.710;6.438;2022-12-11T10:16:45;0.80;99.90
55004;DHT22;40900;52.710;6.438;2022-12-11T10:19:20;0.80;99.90
55004;DHT22;40900;52.710;6.438;2022-12-11T10:21:47;0.80;99.90
55004;DHT22;40900;52.710;6.438;2022-12-11T10:26:45;0.80;99.90
55004;DHT22;40900;52.710;6.438;2022-12-11T10:29:14;0.90;99.90
55004;DHT22;40900;52.710;6.438;2022-12-11T10:34:27;0.80;99.90
55004;DHT22;40900;52.710;6.438;2022-12-11T10:36:56;0.80;99.90
55004;DHT22;40900;52.710;6.438;2022-12-11T10:39:22;0.80;99.90
55004;DHT22;40900;52.710;6.438;2022-12-11T10:41:49;0.80;99.90
55004;DHT22;40900;52.710;6.438;2022-12-11T10:44:16;0.80;99.90
55004;DHT22;40900;52.710;6.438;2022-12-11T10:46:43;0.90;99.90
55004;DHT22;40900;52.710;6.438;2022-12-11T10:49:24;0.80;99.90
55004;DHT22;40900;52.710;6.438;2022-12-11T10:51:51;0.80;99.90
55004;DHT22;40900;52.710;6.438;2022-12-11T10:54:37;0.90;99.90
55004;DHT22;40900;52.710;6.438;2022-12-11T10:57:05;0.80;99.90
55004;DHT22;40900;52.710;6.438;2022-12-11T10:59:48;0.80;99.90
55004;DHT22;40900;52.710;6.438;2022-12-11T11:02:44;0.80;99.90
55004;DHT22;40900;52.710;6.438;2022-12-11T11:05:16;0.90;99.90
55004;DHT22;40900;52.710;6.438;2022-12-11T11:08:02;0.90;99.90
55004;DHT22;40900;52.710;6.438;2022-12-11T11:10:29;0.90;99.90
55004;DHT22;40900;52.710;6.438;2022-12-11T11:13:00;0.90;99.90
55004;DHT22;40900;52.710;6.438;2022-12-11T11:15:28;0.90;99.90
55004;DHT22;40900;52.710;6.438;2022-12-11T11:17:57;0.90;99.90
55004;DHT22;40900;52.710;6.438;2022-12-11T11:20:27;0.90;99.90
55004;DHT22;40900;52.710;6.438;2022-12-11T11:23:01;0.90;99.90
55004;DHT22;40900;52.710;6.438;2022-12-11T11:25:30;0.90;99.90
55004;DHT22;40900;52.710;6.438;2022-12-11T11:28:00;0.90;99.90
55004;DHT22;40900;52.710;6.438;2022-12-11T11:30:38;0.90;99.90
55004;DHT22;40900;52.710;6.438;2022-12-11T11:33:19;1.00;99.90
55004;DHT22;40900;52.710;6.438;2022-12-11T11:35:55;1.00;99.90
55004;DHT22;40900;52.710;6.438;2022-12-11T11:38:45;1.00;99.90
55004;DHT22;40900;52.710;6.438;2022-12-11T11:41:20;0.90;99.90
55004;DHT22;40900;52.710;6.438;2022-12-11T11:43:57;1.00;99.90
55004;DHT22;40900;52.710;6.438;2022-12-11T11:46:28;1.00;99.90
55004;DHT22;40900;52.710;6.438;2022-12-11T11:49:20;1.00;99.90
55004;DHT22;40900;52.710;6.438;2022-12-11T11:55:07;1.00;99.90
55004;DHT22;40900;52.710;6.438;2022-12-11T11:57:44;1.00;99.90
55004;DHT22;40900;52.710;6.438;2022-12-11T12:00:22;0.90;99.90
55004;DHT22;40900;52.710;6.438;2022-12-11T12:02:52;1.00;99.90
55004;DHT22;40900;52.710;6.438;2022-12-11T12:05:25;1.00;99.90
55004;DHT22;40900;52.710;6.438;2022-12-11T12:08:01;1.00;99.90
55004;DHT22;40900;52.710;6.438;2022-12-11T12:10:37;1.00;99.90
55004;DHT22;40900;52.710;6.438;2022-12-11T12:16:00;1.00;99.90
55004;DHT22;40900;52.710;6.438;2022-12-11T12:21:29;1.00;99.90
55004;DHT22;40900;52.710;6.438;2022-12-11T12:45:26;1.00;99.90
55004;DHT22;40900;52.710;6.438;2022-12-11T12:47:53;1.00;99.90
55004;DHT22;40900;52.710;6.438;2022-12-11T12:50:24;1.00;99.90
55004;DHT22;40900;52.710;6.438;2022-12-11T12:52:51;1.00;99.90
55004;DHT22;40900;52.710;6.438;2022-12-11T12:55:22;1.00;99.90
55004;DHT22;40900;52.710;6.438;2022-12-11T12:58:05;0.90;99.90
55004;DHT22;40900;52.710;6.438;2022-12-11T13:03:21;0.90;99.90
55004;DHT22;40900;52.710;6.438;2022-12-11T13:06:02;0.90;99.90
55004;DHT22;40900;52.710;6.438;2022-12-11T13:08:47;0.80;99.90
55004;DHT22;40900;52.710;6.438;2022-12-11T13:11:17;0.80;99.90
55004;DHT22;40900;52.710;6.438;2022-12-11T13:14:01;0.80;99.90
55004;DHT22;40900;52.710;6.438;2022-12-11T13:16:35;0.80;99.90
55004;DHT22;40900;52.710;6.438;2022-12-11T13:19:02;0.80;99.90
55004;DHT22;40900;52.710;6.438;2022-12-11T13:21:31;0.80;99.90
55004;DHT22;40900;52.710;6.438;2022-12-11T13:26:46;0.80;99.90
55004;DHT22;40900;52.710;6.438;2022-12-11T13:32:22;0.80;99.90
55004;DHT22;40900;52.710;6.438;2022-12-11T13:34:59;0.90;99.90
55004;DHT22;40900;52.710;6.438;2022-12-11T13:37:34;0.90;99.90
55004;DHT22;40900;52.710;6.438;2022-12-11T13:40:28;0.90;99.90
55004;DHT22;40900;52.710;6.438;2022-12-11T13:43:01;0.90;99.90
55004;DHT22;40900;52.710;6.438;2022-12-11T13:48:38;1.00;99.90
55004;DHT22;40900;52.710;6.438;2022-12-11T13:51:05;1.00;99.90
55004;DHT22;40900;52.710;6.438;2022-12-11T13:53:31;1.00;99.90
55004;DHT22;40900;52.710;6.438;2022-12-11T13:56:06;1.10;99.90
55004;DHT22;40900;52.710;6.438;2022-12-11T13:58:39;1.00;99.90
55004;DHT22;40900;52.710;6.438;2022-12-11T14:01:11;1.00;99.90
55004;DHT22;40900;52.710;6.438;2022-12-11T14:03:57;1.00;99.90
55004;DHT22;40900;52.710;6.438;2022-12-11T14:06:24;1.00;99.90
55004;DHT22;40900;52.710;6.438;2022-12-11T14:08:53;1.00;99.90
55004;DHT22;40900;52.710;6.438;2022-12-11T14:11:22;1.00;99.90
55004;DHT22;40900;52.710;6.438;2022-12-11T14:13:53;1.00;99.90
55004;DHT22;40900;52.710;6.438;2022-12-11T14:16:22;1.00;99.90
55004;DHT22;40900;52.710;6.438;2022-12-11T14:18:49;1.00;99.90
55004;DHT22;40900;52.710;6.438;2022-12-11T14:21:20;1.00;99.90
55004;DHT22;40900;52.710;6.438;2022-12-11T14:23:57;1.00;99.90
55004;DHT22;40900;52.710;6.438;2022-12-11T14:26:28;1.00;99.90
55004;DHT22;40900;52.710;6.438;2022-12-11T14:28:54;1.00;99.90
55004;DHT22;40900;52.710;6.438;2022-12-11T14:31:27;1.00;99.90
55004;DHT22;40900;52.710;6.438;2022-12-11T14:34:00;1.00;99.90
55004;DHT22;40900;52.710;6.438;2022-12-11T14:36:28;1.00;99.90
55004;DHT22;40900;52.710;6.438;2022-12-11T14:38:55;1.00;99.90
55004;DHT22;40900;52.710;6.438;2022-12-11T14:41:44;1.00;99.90
55004;DHT22;40900;52.710;6.438;2022-12-11T14:44:14;1.00;99.90
55004;DHT22;40900;52.710;6.438;2022-12-11T14:47:02;1.00;99.90
55004;DHT22;40900;52.710;6.438;2022-12-11T14:49:50;1.00;99.90
55004;DHT22;40900;52.710;6.438;2022-12-11T14:52:29;1.00;99.90
55004;DHT22;40900;52.710;6.438;2022-12-11T14:55:00;1.00;99.90
55004;DHT22;40900;52.710;6.438;2022-12-11T14:57:29;0.90;99.90
55004;DHT22;40900;52.710;6.438;2022-12-11T14:59:56;1.00;99.90
55004;DHT22;40900;52.710;6.438;2022-12-11T15:05:06;0.90;99.90
55004;DHT22;40900;52.710;6.438;2022-12-11T15:07:35;0.90;99.90
55004;DHT22;40900;52.710;6.438;2022-12-11T15:10:02;0.90;99.90
55004;DHT22;40900;52.710;6.438;2022-12-11T15:12:29;0.90;99.90
55004;DHT22;40900;52.710;6.438;2022-12-11T15:15:00;1.00;99.90
55004;DHT22;40900;52.710;6.438;2022-12-11T15:17:27;1.00;99.90
55004;DHT22;40900;52.710;6.438;2022-12-11T15:19:57;0.90;99.90
55004;DHT22;40900;52.710;6.438;2022-12-11T15:22:26;0.90;99.90
55004;DHT22;40900;52.710;6.438;2022-12-11T15:24:55;1.00;99.90
55004;DHT22;40900;52.710;6.438;2022-12-11T15:27:38;0.90;99.90
55004;DHT22;40900;52.710;6.438;2022-12-11T15:35:36;0.90;99.90
55004;DHT22;40900;52.710;6.438;2022-12-11T15:38:03;1.20;99.90
55004;DHT22;40900;52.710;6.438;2022-12-11T15:40:28;0.90;99.90
55004;DHT22;40900;52.710;6.438;2022-12-11T15:42:55;0.90;99.90
55004;DHT22;40900;52.710;6.438;2022-12-11T15:45:24;0.90;99.90
55004;DHT22;40900;52.710;6.438;2022-12-11T15:47:50;0.90;99.90
55004;DHT22;40900;52.710;6.438;2022-12-11T15:50:22;0.90;99.90
55004;DHT22;40900;52.710;6.438;2022-12-11T15:52:49;0.90;99.90
55004;DHT22;40900;52.710;6.438;2022-12-11T15:55:16;0.90;99.90
55004;DHT22;40900;52.710;6.438;2022-12-11T15:57:55;0.90;99.90
55004;DHT22;40900;52.710;6.438;2022-12-11T16:00:23;0.90;99.90
55004;DHT22;40900;52.710;6.438;2022-12-11T16:02:49;0.90;99.90
55004;DHT22;40900;52.710;6.438;2022-12-11T16:05:16;0.90;99.90
55004;DHT22;40900;52.710;6.438;2022-12-11T16:07:42;0.90;99.90
55004;DHT22;40900;52.710;6.438;2022-12-11T16:10:16;0.90;99.90
55004;DHT22;40900;52.710;6.438;2022-12-11T16:12:43;0.90;99.90
55004;DHT22;40900;52.710;6.438;2022-12-11T16:15:12;0.90;99.90
55004;DHT22;40900;52.710;6.438;2022-12-11T16:17:39;0.90;99.90
55004;DHT22;40900;52.710;6.438;2022-12-11T16:20:06;0.90;99.90
55004;DHT22;40900;52.710;6.438;2022-12-11T16:22:32;0.90;99.90
55004;DHT22;40900;52.710;6.438;2022-12-11T16:24:58;0.90;99.90
55004;DHT22;40900;52.710;6.438;2022-12-11T16:27:23;0.90;99.90
55004;DHT22;40900;52.710;6.438;2022-12-11T16:29:50;1.00;99.90
55004;DHT22;40900;52.710;6.438;2022-12-11T16:32:16;0.90;99.90
55004;DHT22;40900;52.710;6.438;2022-12-11T16:34:41;0.90;99.90
55004;DHT22;40900;52.710;6.438;2022-12-11T16:37:08;0.90;99.90
55004;DHT22;40900;52.710;6.438;2022-12-11T16:39:35;0.90;99.90
55004;DHT22;40900;52.710;6.438;2022-12-11T16:42:02;0.90;99.90
55004;DHT22;40900;52.710;6.438;2022-12-11T16:44:28;0.90;99.90
55004;DHT22;40900;52.710;6.438;2022-12-11T16:46:54;1.30;99.90
55004;DHT22;40900;52.710;6.438;2022-12-11T16:49:20;0.90;99.90
55004;DHT22;40900;52.710;6.438;2022-12-11T16:51:46;0.90;99.90
55004;DHT22;40900;52.710;6.438;2022-12-11T16:54:13;0.90;99.90
55004;DHT22;40900;52.710;6.438;2022-12-11T16:56:39;0.90;99.90
55004;DHT22;40900;52.710;6.438;2022-12-11T16:59:05;0.90;99.90
55004;DHT22;40900;52.710;6.438;2022-12-11T17:01:32;0.90;99.90
55004;DHT22;40900;52.710;6.438;2022-12-11T17:03:58;0.90;99.90
55004;DHT22;40900;52.710;6.438;2022-12-11T17:06:24;0.90;99.90
55004;DHT22;40900;52.710;6.438;2022-12-11T17:08:50;0.80;99.90
55004;DHT22;40900;52.710;6.438;2022-12-11T17:11:18;0.80;99.90
55004;DHT22;40900;52.710;6.438;2022-12-11T17:13:44;0.90;99.90
55004;DHT22;40900;52.710;6.438;2022-12-11T17:16:12;0.80;99.90
55004;DHT22;40900;52.710;6.438;2022-12-11T17:18:39;0.80;99.90
55004;DHT22;40900;52.710;6.438;2022-12-11T17:21:06;0.80;99.90
55004;DHT22;40900;52.710;6.438;2022-12-11T17:23:32;0.80;99.90
55004;DHT22;40900;52.710;6.438;2022-12-11T17:25:58;0.80;99.90
55004;DHT22;40900;52.710;6.438;2022-12-11T17:28:24;0.80;99.90